createdAt,value
2022-12-28T00:01:45.098Z,1.85
2022-12-28T00:04:14.409Z,1.87
2022-12-28T00:06:41.013Z,1.89
2022-12-28T00:09:10.610Z,1.81
2022-12-28T00:11:36.958Z,1.92
2022-12-28T00:14:03.368Z,1.91
2022-12-28T00:16:32.374Z,1.87
2022-12-28T00:19:01.626Z,1.88
2022-12-28T00:21:28.533Z,1.84
2022-12-28T00:23:57.418Z,1.75
2022-12-28T00:26:25.882Z,1.68
2022-12-28T00:28:55.565Z,1.67
2022-12-28T00:31:26.354Z,1.61
2022-12-28T00:33:52.899Z,1.50
2022-12-28T00:36:19.254Z,1.53
2022-12-28T00:38:45.655Z,1.52
2022-12-28T00:41:12.176Z,1.55
2022-12-28T00:43:38.588Z,1.50
2022-12-28T00:46:05.104Z,1.58
2022-12-28T00:48:32.057Z,1.54
2022-12-28T00:51:09.564Z,1.59
2022-12-28T00:53:35.963Z,1.65
2022-12-28T00:56:15.510Z,1.67
2022-12-28T00:58:42.068Z,1.68
2022-12-28T01:01:14.000Z,1.72
2022-12-28T01:07:02.672Z,1.72
2022-12-28T01:09:28.986Z,1.83
2022-12-28T01:11:55.290Z,1.76
2022-12-28T01:14:21.696Z,1.77
2022-12-28T01:16:48.136Z,1.75
2022-12-28T01:19:19.217Z,1.74
2022-12-28T01:21:48.948Z,1.79
2022-12-28T01:26:56.009Z,1.84
2022-12-28T01:29:22.356Z,1.88
2022-12-28T01:31:48.711Z,1.93
2022-12-28T01:34:15.204Z,1.89
2022-12-28T01:36:41.714Z,1.99
2022-12-28T01:39:08.260Z,2.01
2022-12-28T01:41:38.294Z,2.04
2022-12-28T01:44:04.591Z,2.07
2022-12-28T01:46:47.571Z,2.09
2022-12-28T01:49:18.678Z,2.10
2022-12-28T01:51:54.013Z,2.14
2022-12-28T01:54:23.687Z,2.17
2022-12-28T01:56:51.004Z,2.14
2022-12-28T01:59:22.089Z,2.17
2022-12-28T02:01:49.164Z,2.15
2022-12-28T02:04:15.903Z,2.15
2022-12-28T02:06:42.412Z,2.18
2022-12-28T02:09:19.566Z,2.23
2022-12-28T02:11:47.611Z,2.24
2022-12-28T02:14:15.219Z,2.35
2022-12-28T02:16:43.460Z,2.32
2022-12-28T02:19:13.655Z,2.34
2022-12-28T02:22:11.224Z,2.34
2022-12-28T02:25:22.640Z,2.37
2022-12-28T02:28:17.507Z,2.40
2022-12-28T02:30:50.234Z,2.42
2022-12-28T02:33:26.224Z,2.41
2022-12-28T02:36:01.197Z,2.39
2022-12-28T02:38:40.302Z,2.38
2022-12-28T02:41:10.919Z,2.38
2022-12-28T02:43:37.324Z,2.37
2022-12-28T02:46:50.216Z,2.37
2022-12-28T02:49:40.848Z,2.36
2022-12-28T02:52:44.095Z,2.37
2022-12-28T02:55:44.385Z,2.35
2022-12-28T02:58:29.695Z,2.39
2022-12-28T03:01:26.661Z,2.43
2022-12-28T03:04:14.576Z,2.50
2022-12-28T03:07:29.043Z,2.46
2022-12-28T03:10:10.024Z,2.48
2022-12-28T03:12:43.318Z,2.46
2022-12-28T03:15:14.335Z,2.50
2022-12-28T03:18:02.806Z,2.44
2022-12-28T03:20:50.620Z,2.54
2022-12-28T03:23:40.105Z,2.51
2022-12-28T03:26:29.101Z,2.50
2022-12-28T03:29:15.801Z,2.46
2022-12-28T03:31:42.731Z,2.53
2022-12-28T03:34:09.465Z,2.52
2022-12-28T03:36:59.792Z,2.52
2022-12-28T03:39:47.843Z,2.47
2022-12-28T03:42:37.009Z,2.53
2022-12-28T03:45:13.893Z,2.52
2022-12-28T03:48:02.541Z,2.51
2022-12-28T03:50:30.948Z,2.52
2022-12-28T03:53:00.533Z,2.55
2022-12-28T03:55:27.336Z,2.51
2022-12-28T03:57:53.644Z,2.59
2022-12-28T04:00:20.063Z,2.62
2022-12-28T04:02:46.488Z,2.63
2022-12-28T04:05:12.965Z,2.68
2022-12-28T04:07:39.363Z,2.70
2022-12-28T04:10:06.028Z,2.69
2022-12-28T04:12:32.389Z,2.65
2022-12-28T04:14:58.704Z,2.70
2022-12-28T04:17:25.004Z,2.76
2022-12-28T04:19:51.377Z,2.73
2022-12-28T04:22:17.665Z,2.79
2022-12-28T04:24:43.977Z,2.85
2022-12-28T04:27:10.332Z,2.90
2022-12-28T04:29:36.712Z,2.85
2022-12-28T04:32:03.068Z,2.83
2022-12-28T04:34:29.370Z,2.88
2022-12-28T04:36:55.766Z,2.84
2022-12-28T04:39:22.133Z,2.91
2022-12-28T04:41:48.530Z,2.90
2022-12-28T04:44:15.063Z,3.05
2022-12-28T04:46:41.561Z,3.00
2022-12-28T04:49:07.870Z,3.00
2022-12-28T04:51:35.137Z,3.05
2022-12-28T04:54:01.484Z,3.07
2022-12-28T04:56:28.215Z,3.23
2022-12-28T04:58:56.284Z,3.15
2022-12-28T05:01:23.483Z,3.26
2022-12-28T05:03:55.019Z,3.23
2022-12-28T05:06:25.571Z,3.30
2022-12-28T05:08:51.911Z,3.39
2022-12-28T05:11:24.063Z,3.45
2022-12-28T05:13:50.723Z,3.47
2022-12-28T05:16:21.645Z,3.48
2022-12-28T05:18:48.423Z,3.55
2022-12-28T05:21:23.529Z,3.57
2022-12-28T05:23:50.302Z,3.78
2022-12-28T05:26:20.031Z,3.73
2022-12-28T05:28:46.783Z,3.73
2022-12-28T05:31:16.072Z,3.82
2022-12-28T05:33:43.387Z,3.90
2022-12-28T05:36:16.029Z,4.00
2022-12-28T05:38:42.619Z,3.99
2022-12-28T05:41:20.782Z,4.00
2022-12-28T05:43:47.510Z,4.06
2022-12-28T05:46:20.283Z,4.04
2022-12-28T05:48:47.494Z,4.00
2022-12-28T05:51:16.816Z,4.11
2022-12-28T05:53:43.883Z,4.09
2022-12-28T05:56:16.586Z,4.12
2022-12-28T05:58:44.826Z,4.19
2022-12-28T06:01:17.380Z,4.12
2022-12-28T06:03:44.849Z,4.16
2022-12-28T06:06:17.080Z,4.15
2022-12-28T06:08:45.060Z,4.20
2022-12-28T06:11:14.322Z,4.23
2022-12-28T06:13:41.197Z,4.19
2022-12-28T06:16:16.886Z,4.36
2022-12-28T06:18:43.841Z,4.28
2022-12-28T06:21:22.013Z,4.34
2022-12-28T06:23:49.042Z,4.39
2022-12-28T06:26:18.186Z,4.41
2022-12-28T06:28:45.310Z,4.41
2022-12-28T06:31:23.229Z,4.48
2022-12-28T06:33:54.805Z,4.48
2022-12-28T06:36:23.692Z,4.53
2022-12-28T06:38:51.963Z,4.55
2022-12-28T06:41:20.921Z,4.57
2022-12-28T06:43:48.352Z,4.61
2022-12-28T06:46:16.487Z,4.64
2022-12-28T06:48:43.556Z,4.64
2022-12-28T06:51:20.032Z,4.66
2022-12-28T06:53:47.455Z,4.63
2022-12-28T06:56:22.759Z,4.61
2022-12-28T06:58:50.570Z,4.66
2022-12-28T07:01:25.727Z,4.64
2022-12-28T07:03:54.522Z,4.66
2022-12-28T07:06:23.337Z,4.68
2022-12-28T07:08:50.795Z,4.66
2022-12-28T07:11:20.079Z,4.73
2022-12-28T07:13:46.624Z,4.67
2022-12-28T07:16:16.102Z,4.62
2022-12-28T07:18:43.191Z,4.67
2022-12-28T07:21:15.713Z,4.61
2022-12-28T07:23:42.533Z,4.66
2022-12-28T07:26:10.013Z,4.64
2022-12-28T07:28:41.286Z,4.61
2022-12-28T07:31:20.108Z,4.63
2022-12-28T07:33:49.410Z,4.67
2022-12-28T07:36:18.485Z,4.69
2022-12-28T07:38:45.370Z,4.61
2022-12-28T07:41:14.411Z,4.72
2022-12-28T07:43:41.158Z,4.72
2022-12-28T07:46:11.151Z,4.71
2022-12-28T07:48:38.092Z,4.74
2022-12-28T07:51:13.747Z,4.74
2022-12-28T07:53:42.020Z,4.76
2022-12-28T07:56:08.784Z,4.77
2022-12-28T07:58:35.328Z,4.79
2022-12-28T08:01:08.317Z,4.75
2022-12-28T08:03:37.207Z,4.90
2022-12-28T08:06:12.166Z,5.01
2022-12-28T08:08:41.145Z,5.00
2022-12-28T08:11:10.892Z,4.94
2022-12-28T08:13:39.744Z,5.01
2022-12-28T08:16:07.208Z,5.01
2022-12-28T08:18:33.830Z,5.04
2022-12-28T08:21:02.708Z,5.00
2022-12-28T08:23:30.866Z,4.99
2022-12-28T08:26:04.373Z,4.99
2022-12-28T08:28:30.774Z,4.94
2022-12-28T08:30:57.146Z,4.93
2022-12-28T08:33:23.527Z,4.98
2022-12-28T08:35:49.918Z,5.06
2022-12-28T08:38:16.229Z,5.12
2022-12-28T08:40:42.556Z,5.17
2022-12-28T08:43:09.029Z,5.21
2022-12-28T08:45:37.708Z,5.31
2022-12-28T08:48:04.865Z,5.31
2022-12-28T08:50:33.067Z,5.31
2022-12-28T08:52:59.704Z,5.36
2022-12-28T08:55:25.982Z,5.36
2022-12-28T08:57:52.304Z,5.50
2022-12-28T09:00:18.817Z,5.51
2022-12-28T09:02:45.272Z,5.51
2022-12-28T09:05:11.655Z,5.52
2022-12-28T09:07:37.936Z,5.59
2022-12-28T09:10:04.798Z,5.63
2022-12-28T09:12:31.188Z,5.74
2022-12-28T09:14:57.484Z,5.82
2022-12-28T09:17:23.801Z,5.82
2022-12-28T09:19:50.077Z,5.87
2022-12-28T09:22:16.375Z,5.86
2022-12-28T09:24:42.747Z,5.81
2022-12-28T09:27:09.067Z,5.82
2022-12-28T09:29:35.400Z,5.79
2022-12-28T09:32:01.775Z,5.78
2022-12-28T09:34:37.519Z,5.75
2022-12-28T09:37:05.048Z,5.79
2022-12-28T09:39:31.700Z,5.81
2022-12-28T09:42:16.058Z,5.84
2022-12-28T09:44:56.114Z,5.88
2022-12-28T09:47:37.854Z,5.92
2022-12-28T09:50:19.503Z,5.93
2022-12-28T09:53:07.378Z,5.98
2022-12-28T09:55:36.362Z,5.99
2022-12-28T09:58:05.357Z,6.00
2022-12-28T10:00:41.462Z,5.98
2022-12-28T10:03:21.931Z,5.96
2022-12-28T10:05:49.649Z,5.95
2022-12-28T10:08:18.842Z,5.99
2022-12-28T10:10:48.885Z,6.02
2022-12-28T10:13:52.953Z,6.04
2022-12-28T10:16:17.629Z,6.08
2022-12-28T10:18:44.971Z,6.09
2022-12-28T10:21:11.962Z,6.13
2022-12-28T10:23:56.711Z,6.22
2022-12-28T10:26:26.277Z,6.19
2022-12-28T10:28:56.826Z,6.34
2022-12-28T10:31:36.719Z,6.40
2022-12-28T10:34:20.680Z,6.43
2022-12-28T10:36:48.312Z,6.52
2022-12-28T10:39:26.805Z,6.63
2022-12-28T10:41:54.834Z,6.69
2022-12-28T10:47:30.620Z,6.83
2022-12-28T10:52:43.679Z,6.97
2022-12-28T10:55:31.225Z,7.00
2022-12-28T10:58:29.561Z,7.04
2022-12-28T11:01:01.318Z,7.11
2022-12-28T11:03:21.237Z,6.77
2022-12-28T11:03:30.947Z,7.14
2022-12-28T11:06:24.371Z,7.13
2022-12-28T11:09:12.288Z,7.15
2022-12-28T11:11:39.289Z,7.17
2022-12-28T11:14:37.604Z,7.19
2022-12-28T11:17:18.904Z,7.31
2022-12-28T11:19:47.817Z,7.29
2022-12-28T11:22:20.707Z,7.32
2022-12-28T11:24:47.085Z,7.44
2022-12-28T11:27:16.589Z,7.52
2022-12-28T11:29:46.617Z,7.61
2022-12-28T11:32:48.490Z,7.72
2022-12-28T11:35:22.528Z,7.79
2022-12-28T11:38:00.585Z,7.80
2022-12-28T11:40:49.906Z,7.87
2022-12-28T11:43:28.290Z,7.87
2022-12-28T11:45:57.222Z,7.94
2022-12-28T11:48:41.934Z,7.93
2022-12-28T11:51:28.184Z,7.97
2022-12-28T11:54:04.168Z,8.00
2022-12-28T11:56:38.529Z,8.06
2022-12-28T11:59:19.542Z,8.23
2022-12-28T12:01:46.815Z,8.20
2022-12-28T12:04:28.759Z,8.36
2022-12-28T12:06:55.008Z,8.37
2022-12-28T12:09:21.277Z,8.49
2022-12-28T12:11:49.442Z,8.46
2022-12-28T12:14:21.753Z,8.51
2022-12-28T12:17:03.157Z,8.51
2022-12-28T12:19:33.327Z,8.51
2022-12-28T12:22:29.656Z,8.61
2022-12-28T12:25:04.354Z,8.64
2022-12-28T12:27:33.735Z,8.66
2022-12-28T12:30:03.693Z,8.60
2022-12-28T12:32:44.348Z,8.49
2022-12-28T12:35:15.553Z,8.48
2022-12-28T12:38:21.475Z,8.44
2022-12-28T12:41:21.939Z,8.42
2022-12-28T12:44:17.677Z,8.39
2022-12-28T12:47:05.874Z,8.40
2022-12-28T12:50:10.171Z,8.37
2022-12-28T12:52:53.322Z,8.34
2022-12-28T12:55:41.564Z,8.33
2022-12-28T12:58:19.453Z,8.30
2022-12-28T13:01:03.387Z,8.32
2022-12-28T13:03:47.919Z,8.31
2022-12-28T13:06:20.916Z,8.28
2022-12-28T13:09:05.365Z,8.32
2022-12-28T13:11:37.043Z,8.30
2022-12-28T13:14:04.298Z,8.37
2022-12-28T13:16:32.503Z,8.35
2022-12-28T13:19:05.207Z,8.37
2022-12-28T13:21:43.346Z,8.37
2022-12-28T13:24:27.397Z,8.30
2022-12-28T13:26:55.838Z,8.29
2022-12-28T13:29:27.551Z,8.29
2022-12-28T13:31:54.210Z,8.33
2022-12-28T13:34:23.307Z,8.34
2022-12-28T13:36:56.335Z,8.25
2022-12-28T13:39:24.607Z,8.30
2022-12-28T13:41:53.605Z,8.27
2022-12-28T13:44:41.234Z,8.29
2022-12-28T13:47:10.352Z,8.24
2022-12-28T13:49:43.961Z,8.23
2022-12-28T13:52:16.674Z,8.20
2022-12-28T13:54:49.129Z,8.19
2022-12-28T13:57:45.721Z,8.25
2022-12-28T14:00:06.211Z,8.24
2022-12-28T14:02:34.467Z,8.27
2022-12-28T14:05:01.883Z,8.31
2022-12-28T14:07:35.380Z,8.21
2022-12-28T14:10:03.100Z,8.22
2022-12-28T14:12:34.548Z,8.26
2022-12-28T14:15:01.345Z,8.20
2022-12-28T14:17:27.913Z,8.16
2022-12-28T14:19:57.215Z,8.16
2022-12-28T14:22:35.726Z,8.13
2022-12-28T14:25:06.591Z,8.22
2022-12-28T14:27:36.723Z,8.19
2022-12-28T14:30:07.275Z,8.20
2022-12-28T14:32:40.633Z,8.24
2022-12-28T14:35:22.281Z,8.37
2022-12-28T14:37:55.015Z,8.32
2022-12-28T14:40:26.980Z,8.32
2022-12-28T14:42:54.995Z,8.34
2022-12-28T14:46:07.140Z,8.29
2022-12-28T14:48:29.174Z,8.43
2022-12-28T14:50:58.227Z,8.45
2022-12-28T14:53:24.995Z,8.45
2022-12-28T14:56:01.166Z,8.42
2022-12-28T14:58:50.833Z,8.51
2022-12-28T15:01:18.912Z,8.51
2022-12-28T15:03:49.338Z,8.50
2022-12-28T15:06:16.310Z,8.52
2022-12-28T15:08:47.324Z,8.49
2022-12-28T15:11:14.177Z,8.51
2022-12-28T15:13:40.565Z,8.54
2022-12-28T15:16:07.196Z,8.46
2022-12-28T15:18:34.014Z,8.48
2022-12-28T15:21:05.500Z,8.57
2022-12-28T15:23:32.013Z,8.45
2022-12-28T15:25:58.398Z,8.47
2022-12-28T15:28:25.487Z,8.48
2022-12-28T15:30:51.782Z,8.41
2022-12-28T15:33:18.142Z,8.42
2022-12-28T15:35:44.468Z,8.38
2022-12-28T15:38:10.761Z,8.33
2022-12-28T15:40:39.698Z,8.25
2022-12-28T15:43:06.044Z,8.20
2022-12-28T15:45:32.500Z,8.16
2022-12-28T15:47:58.907Z,8.24
2022-12-28T15:50:25.235Z,8.18
2022-12-28T15:52:51.541Z,8.09
2022-12-28T15:55:17.889Z,8.13
2022-12-28T15:57:44.695Z,8.16
2022-12-28T16:00:18.113Z,8.09
2022-12-28T16:02:45.119Z,8.11
2022-12-28T16:05:11.665Z,8.12
2022-12-28T16:07:38.002Z,8.04
2022-12-28T16:10:04.677Z,7.97
2022-12-28T16:12:31.229Z,7.98
2022-12-28T16:14:57.552Z,7.97
2022-12-28T16:17:23.878Z,8.00
2022-12-28T16:19:50.197Z,7.94
2022-12-28T16:22:16.473Z,7.97
2022-12-28T16:24:42.836Z,7.97
2022-12-28T16:27:09.549Z,7.97
2022-12-28T16:29:36.538Z,8.02
2022-12-28T16:32:03.054Z,7.99
2022-12-28T16:34:31.447Z,7.93
2022-12-28T16:36:59.316Z,7.95
2022-12-28T16:39:28.639Z,7.98
2022-12-28T16:41:55.245Z,7.95
2022-12-28T16:44:23.816Z,7.93
2022-12-28T16:46:51.268Z,7.92
2022-12-28T16:49:18.027Z,7.87
2022-12-28T16:51:46.083Z,7.85
2022-12-28T16:54:17.573Z,7.89
2022-12-28T16:56:45.675Z,7.83
2022-12-28T16:59:15.263Z,7.86
2022-12-28T17:01:43.082Z,7.87
2022-12-28T17:04:10.438Z,7.86
2022-12-28T17:06:36.994Z,7.79
2022-12-28T17:09:04.467Z,7.78
2022-12-28T17:11:31.176Z,7.79
2022-12-28T17:14:05.193Z,7.81
2022-12-28T17:16:31.890Z,7.79
2022-12-28T17:19:00.214Z,7.67
2022-12-28T17:21:28.539Z,7.70
2022-12-28T17:23:55.180Z,7.67
2022-12-28T17:26:22.021Z,7.73
2022-12-28T17:28:48.367Z,7.76
2022-12-28T17:31:18.428Z,7.77
2022-12-28T17:33:51.413Z,7.82
2022-12-28T17:36:17.879Z,7.83
2022-12-28T17:38:44.221Z,7.85
2022-12-28T17:41:19.226Z,7.86
2022-12-28T17:43:50.599Z,7.85
2022-12-28T17:46:17.672Z,7.91
2022-12-28T17:48:44.462Z,7.96
2022-12-28T17:51:11.660Z,8.01
2022-12-28T17:53:39.381Z,8.01
2022-12-28T17:56:08.386Z,8.01
2022-12-28T17:58:35.036Z,8.18
2022-12-28T18:01:01.552Z,8.11
2022-12-28T18:03:33.413Z,8.08
2022-12-28T18:06:00.826Z,8.09
2022-12-28T18:08:27.736Z,8.07
2022-12-28T18:10:54.087Z,8.02
2022-12-28T18:13:21.047Z,8.07
2022-12-28T18:15:47.691Z,8.05
2022-12-28T18:18:16.308Z,8.12
2022-12-28T18:20:43.130Z,8.06
2022-12-28T18:23:10.405Z,8.10
2022-12-28T18:25:37.385Z,8.05
2022-12-28T18:28:03.906Z,8.07
2022-12-28T18:30:31.180Z,8.08
2022-12-28T18:32:57.611Z,8.04
2022-12-28T18:35:26.674Z,8.09
2022-12-28T18:37:53.443Z,8.10
2022-12-28T18:40:19.902Z,8.07
2022-12-28T18:42:46.250Z,8.12
2022-12-28T18:45:12.660Z,8.08
2022-12-28T18:47:39.204Z,8.03
2022-12-28T18:50:05.995Z,7.92
2022-12-28T18:52:35.863Z,7.87
2022-12-28T18:55:03.159Z,7.91
2022-12-28T18:57:29.555Z,7.89
2022-12-28T18:59:55.941Z,7.82
2022-12-28T19:02:22.402Z,7.84
2022-12-28T19:04:52.629Z,8.01
2022-12-28T19:07:19.307Z,7.94
2022-12-28T19:10:12.117Z,7.92
2022-12-28T19:12:41.430Z,7.92
2022-12-28T19:15:08.276Z,7.93
2022-12-28T19:17:34.719Z,7.96
2022-12-28T19:20:01.099Z,8.00
2022-12-28T19:22:27.849Z,7.84
2022-12-28T19:24:54.236Z,7.95
2022-12-28T19:27:20.622Z,7.95
2022-12-28T19:29:46.949Z,7.95
2022-12-28T19:32:13.272Z,7.89
2022-12-28T19:34:39.596Z,7.84
2022-12-28T19:37:05.909Z,7.80
2022-12-28T19:39:32.348Z,7.72
2022-12-28T19:41:58.657Z,7.62
2022-12-28T19:44:24.974Z,7.53
2022-12-28T19:46:53.839Z,7.48
2022-12-28T19:49:20.180Z,7.46
2022-12-28T19:51:46.726Z,7.45
2022-12-28T19:54:13.129Z,7.41
2022-12-28T19:56:39.451Z,7.38
2022-12-28T19:59:07.176Z,7.34
2022-12-28T20:01:35.375Z,7.45
2022-12-28T20:04:07.145Z,7.53
2022-12-28T20:06:37.639Z,7.48
2022-12-28T20:09:04.797Z,7.55
2022-12-28T20:11:31.270Z,7.52
2022-12-28T20:13:59.813Z,7.58
2022-12-28T20:16:28.467Z,7.68
2022-12-28T20:18:55.519Z,7.72
2022-12-28T20:21:24.102Z,7.82
2022-12-28T20:23:52.128Z,7.75
2022-12-28T20:26:19.881Z,7.87
2022-12-28T20:28:48.864Z,7.93
2022-12-28T20:31:15.448Z,8.06
2022-12-28T20:33:43.018Z,8.08
2022-12-28T20:36:28.788Z,8.00
2022-12-28T20:38:56.696Z,8.05
2022-12-28T20:41:49.476Z,8.04
2022-12-28T20:44:20.725Z,7.96
2022-12-28T20:46:47.149Z,7.87
2022-12-28T20:49:13.586Z,7.87
2022-12-28T20:51:42.144Z,7.75
2022-12-28T20:54:10.577Z,7.66
2022-12-28T20:56:38.429Z,7.73
2022-12-28T20:59:05.542Z,7.61
2022-12-28T21:01:32.105Z,7.63
2022-12-28T21:03:58.757Z,7.67
2022-12-28T21:06:25.181Z,7.78
2022-12-28T21:08:51.481Z,7.86
2022-12-28T21:11:18.003Z,7.89
2022-12-28T21:13:45.220Z,7.98
2022-12-28T21:16:13.893Z,8.07
2022-12-28T21:18:40.562Z,8.08
2022-12-28T21:21:13.119Z,8.06
2022-12-28T21:23:39.480Z,8.08
2022-12-28T21:26:13.453Z,8.11
2022-12-28T21:28:40.044Z,8.10
2022-12-28T21:31:07.363Z,8.19
2022-12-28T21:33:34.032Z,8.11
2022-12-28T21:36:01.387Z,8.13
2022-12-28T21:38:28.641Z,8.16
2022-12-28T21:40:59.679Z,8.16
2022-12-28T21:43:26.087Z,8.20
2022-12-28T21:46:02.625Z,8.20
2022-12-28T21:48:34.088Z,8.16
2022-12-28T21:51:30.970Z,8.09
2022-12-28T21:53:58.566Z,8.14
2022-12-28T21:56:24.977Z,8.04
2022-12-28T21:58:51.744Z,8.12
2022-12-28T22:01:36.755Z,8.19
2022-12-28T22:04:21.945Z,8.18
2022-12-28T22:06:48.399Z,8.26
2022-12-28T22:09:33.494Z,8.24
2022-12-28T22:12:18.336Z,8.25
2022-12-28T22:14:44.653Z,8.26
2022-12-28T22:17:14.267Z,8.28
2022-12-28T22:19:41.250Z,8.26
2022-12-28T22:22:07.602Z,8.17
2022-12-28T22:24:33.892Z,8.19
2022-12-28T22:27:00.218Z,8.30
2022-12-28T22:29:26.569Z,8.26
2022-12-28T22:31:52.963Z,8.17
2022-12-28T22:34:19.407Z,8.20
2022-12-28T22:36:45.782Z,8.23
2022-12-28T22:39:12.079Z,8.17
2022-12-28T22:41:38.429Z,8.11
2022-12-28T22:44:04.945Z,8.05
2022-12-28T22:46:31.304Z,8.17
2022-12-28T22:48:57.680Z,8.13
2022-12-28T22:51:24.006Z,8.27
2022-12-28T22:53:50.403Z,8.29
2022-12-28T22:56:19.845Z,8.25
2022-12-28T22:58:47.147Z,8.20
2022-12-28T23:01:16.551Z,8.25
2022-12-28T23:03:44.763Z,8.16
2022-12-28T23:06:13.916Z,8.13
2022-12-28T23:08:40.885Z,8.20
2022-12-28T23:11:30.417Z,8.42
2022-12-28T23:14:20.804Z,8.44
2022-12-28T23:16:48.456Z,8.58
2022-12-28T23:19:34.354Z,8.71
2022-12-28T23:22:21.135Z,8.88
2022-12-28T23:25:05.799Z,9.01
2022-12-28T23:27:42.444Z,9.21
2022-12-28T23:30:18.073Z,9.26
2022-12-28T23:32:45.396Z,9.49
2022-12-28T23:35:12.216Z,9.58
2022-12-28T23:37:39.482Z,9.65
2022-12-28T23:40:11.792Z,9.92
2022-12-28T23:42:39.485Z,9.93
2022-12-28T23:45:08.532Z,9.89
2022-12-28T23:47:35.414Z,9.94
2022-12-28T23:50:02.810Z,9.99
2022-12-28T23:52:31.907Z,9.90
2022-12-28T23:54:58.212Z,9.83
2022-12-28T23:57:24.745Z,9.99
2022-12-28T23:59:51.260Z,9.98
